createdAt,value
2018-01-01T00:00:20.831Z,-63
2018-01-01T00:01:20.817Z,-62
2018-01-01T00:02:21.025Z,-66
2018-01-01T00:03:21.123Z,-62
2018-01-01T00:04:21.076Z,-65
2018-01-01T00:05:21.258Z,-62
2018-01-01T00:06:21.516Z,-62
2018-01-01T00:07:21.396Z,-61
2018-01-01T00:08:21.805Z,-64
2018-01-01T00:09:21.878Z,-64
2018-01-01T00:10:21.506Z,-65
2018-01-01T00:11:22.192Z,-66
2018-01-01T00:12:21.202Z,-66
2018-01-01T00:13:21.244Z,-63
2018-01-01T00:14:21.611Z,-69
2018-01-01T00:15:21.838Z,-63
2018-01-01T00:16:20.889Z,-62
2018-01-01T00:17:22.185Z,-62
2018-01-01T00:18:21.367Z,-68
2018-01-01T00:19:21.304Z,-69
2018-01-01T00:20:21.511Z,-63
2018-01-01T00:21:21.487Z,-70
2018-01-01T00:22:21.757Z,-70
2018-01-01T00:23:22.005Z,-64
2018-01-01T00:24:22.149Z,-62
2018-01-01T00:25:21.203Z,-64
2018-01-01T00:26:21.286Z,-64
2018-01-01T00:27:21.114Z,-68
2018-01-01T00:28:21.401Z,-63
2018-01-01T00:29:21.671Z,-68
2018-01-01T00:30:21.853Z,-61
2018-01-01T00:31:21.764Z,-62
2018-01-01T00:32:21.774Z,-66
2018-01-01T00:33:21.687Z,-66
2018-01-01T00:34:21.791Z,-62
2018-01-01T00:35:21.789Z,-69
2018-01-01T00:36:21.315Z,-64
2018-01-01T00:37:21.722Z,-64
2018-01-01T00:38:21.913Z,-65
2018-01-01T00:39:20.951Z,-61
2018-01-01T00:40:21.079Z,-68
2018-01-01T00:41:21.506Z,-61
2018-01-01T00:42:21.565Z,-69
2018-01-01T00:43:21.711Z,-62
2018-01-01T00:44:21.934Z,-65
2018-01-01T00:45:20.720Z,-69
2018-01-01T00:46:21.748Z,-69
2018-01-01T00:47:21.116Z,-65
2018-01-01T00:48:21.357Z,-60
2018-01-01T00:49:20.819Z,-61
2018-01-01T00:50:21.653Z,-68
2018-01-01T00:51:21.796Z,-66
2018-01-01T00:52:22.054Z,-65
2018-01-01T00:53:21.182Z,-63
2018-01-01T00:54:21.382Z,-64
2018-01-01T00:55:22.064Z,-66
2018-01-01T00:56:21.023Z,-67
2018-01-01T00:57:21.517Z,-69
2018-01-01T00:58:21.686Z,-62
2018-01-01T00:59:21.544Z,-65
2018-01-01T01:00:21.723Z,-61
2018-01-01T01:01:21.532Z,-62
2018-01-01T01:02:20.728Z,-61
2018-01-01T01:03:20.982Z,-71
2018-01-01T01:04:21.204Z,-61
2018-01-01T01:05:20.939Z,-63
2018-01-01T01:06:21.517Z,-61
2018-01-01T01:07:21.489Z,-61
2018-01-01T01:08:21.550Z,-68
2018-01-01T01:09:21.912Z,-61
2018-01-01T01:10:20.982Z,-68
2018-01-01T01:11:21.055Z,-68
2018-01-01T01:12:21.150Z,-62
2018-01-01T01:13:21.070Z,-63
2018-01-01T01:14:21.283Z,-62
2018-01-01T01:15:21.101Z,-62
2018-01-01T01:16:21.347Z,-65
2018-01-01T01:17:21.260Z,-65
2018-01-01T01:18:21.423Z,-63
2018-01-01T01:19:21.164Z,-65
2018-01-01T01:20:21.484Z,-63
2018-01-01T01:21:21.511Z,-63
2018-01-01T01:22:21.643Z,-61
2018-01-01T01:23:22.072Z,-63
2018-01-01T01:24:21.728Z,-62
2018-01-01T01:25:20.839Z,-68
2018-01-01T01:26:21.472Z,-66
2018-01-01T01:27:21.457Z,-63
2018-01-01T01:28:21.392Z,-63
2018-01-01T01:29:21.487Z,-66
2018-01-01T01:30:21.288Z,-68
2018-01-01T01:31:21.490Z,-61
2018-01-01T01:32:21.553Z,-71
2018-01-01T01:33:21.547Z,-65
2018-01-01T01:34:21.258Z,-66
2018-01-01T01:35:21.378Z,-67
2018-01-01T01:36:21.035Z,-65
2018-01-01T01:37:20.944Z,-62
2018-01-01T01:38:21.439Z,-69
2018-01-01T01:39:21.179Z,-69
2018-01-01T01:40:21.290Z,-63
2018-01-01T01:41:21.305Z,-69
2018-01-01T01:42:20.998Z,-69
2018-01-01T01:43:21.108Z,-67
2018-01-01T01:44:21.344Z,-62
2018-01-01T01:45:21.433Z,-67
2018-01-01T01:46:21.518Z,-64
2018-01-01T01:47:21.678Z,-69
2018-01-01T01:48:21.079Z,-62
2018-01-01T01:49:21.410Z,-69
2018-01-01T01:50:21.776Z,-62
2018-01-01T01:51:20.602Z,-65
2018-01-01T01:52:21.498Z,-68
2018-01-01T01:53:21.391Z,-67
2018-01-01T01:54:21.755Z,-69
2018-01-01T01:55:20.981Z,-66
2018-01-01T01:56:21.450Z,-62
2018-01-01T01:57:21.714Z,-64
2018-01-01T01:58:21.887Z,-69
2018-01-01T01:59:21.049Z,-62
2018-01-01T02:00:21.005Z,-62
2018-01-01T02:01:21.434Z,-65
2018-01-01T02:02:21.431Z,-61
2018-01-01T02:03:21.405Z,-68
2018-01-01T02:04:20.956Z,-64
2018-01-01T02:05:21.029Z,-63
2018-01-01T02:06:20.875Z,-68
2018-01-01T02:07:20.966Z,-63
2018-01-01T02:08:20.919Z,-61
2018-01-01T02:09:20.703Z,-64
2018-01-01T02:10:20.776Z,-68
2018-01-01T02:11:20.423Z,-68
2018-01-01T02:12:20.391Z,-61
2018-01-01T02:13:20.401Z,-65
2018-01-01T02:14:21.185Z,-63
2018-01-01T02:15:21.413Z,-65
2018-01-01T02:16:20.144Z,-61
2018-01-01T02:17:20.530Z,-63
2018-01-01T02:18:20.731Z,-63
2018-01-01T02:19:20.923Z,-64
2018-01-01T02:20:21.511Z,-63
2018-01-01T02:21:20.613Z,-66
2018-01-01T02:22:20.914Z,-69
2018-01-01T02:23:21.030Z,-61
2018-01-01T02:24:21.123Z,-68
2018-01-01T02:25:21.282Z,-68
2018-01-01T02:26:21.263Z,-63
2018-01-01T02:27:21.184Z,-69
2018-01-01T02:28:21.220Z,-68
2018-01-01T02:29:21.478Z,-68
2018-01-01T02:30:20.674Z,-68
2018-01-01T02:31:20.815Z,-69
2018-01-01T02:32:20.866Z,-61
2018-01-01T02:33:21.010Z,-61
2018-01-01T02:34:20.970Z,-63
2018-01-01T02:35:20.812Z,-61
2018-01-01T02:36:20.381Z,-62
2018-01-01T02:37:20.630Z,-61
2018-01-01T02:38:20.136Z,-64
2018-01-01T02:39:19.874Z,-61
2018-01-01T02:40:20.992Z,-66
2018-01-01T02:41:19.870Z,-66
2018-01-01T02:42:20.839Z,-61
2018-01-01T02:43:21.187Z,-65
2018-01-01T02:44:20.503Z,-61
2018-01-01T02:45:20.170Z,-61
2018-01-01T02:46:20.433Z,-61
2018-01-01T02:47:20.243Z,-64
2018-01-01T02:48:20.568Z,-61
2018-01-01T02:49:20.912Z,-68
2018-01-01T02:50:21.134Z,-61
2018-01-01T02:51:20.341Z,-61
2018-01-01T02:52:20.488Z,-68
2018-01-01T02:53:20.979Z,-62
2018-01-01T02:54:21.127Z,-66
2018-01-01T02:55:19.972Z,-66
2018-01-01T02:56:21.065Z,-63
2018-01-01T02:57:20.240Z,-68
2018-01-01T02:58:19.963Z,-68
2018-01-01T02:59:20.110Z,-65
2018-01-01T03:00:20.165Z,-61
2018-01-01T03:01:20.645Z,-68
2018-01-01T03:02:21.034Z,-62
2018-01-01T03:03:20.331Z,-68
2018-01-01T03:04:20.344Z,-63
2018-01-01T03:05:20.690Z,-61
2018-01-01T03:06:20.612Z,-64
2018-01-01T03:07:20.832Z,-68
2018-01-01T03:08:20.967Z,-68
2018-01-01T03:09:21.202Z,-62
2018-01-01T03:10:20.800Z,-62
2018-01-01T03:11:21.082Z,-64
2018-01-01T03:12:20.868Z,-68
2018-01-01T03:13:21.026Z,-63
2018-01-01T03:14:21.274Z,-62
2018-01-01T03:15:21.279Z,-61
2018-01-01T03:16:21.413Z,-62
2018-01-01T03:17:21.521Z,-66
2018-01-01T03:18:21.703Z,-63
2018-01-01T03:19:21.105Z,-63
2018-01-01T03:20:21.262Z,-63
2018-01-01T03:21:21.439Z,-68
2018-01-01T03:22:21.372Z,-68
2018-01-01T03:23:21.306Z,-61
2018-01-01T03:24:21.342Z,-62
2018-01-01T03:25:21.546Z,-63
2018-01-01T03:26:21.528Z,-62
2018-01-01T03:27:21.601Z,-63
2018-01-01T03:28:21.526Z,-63
2018-01-01T03:29:21.630Z,-65
2018-01-01T03:30:21.201Z,-62
2018-01-01T03:31:21.242Z,-63
2018-01-01T03:32:20.839Z,-61
2018-01-01T03:33:20.502Z,-66
2018-01-01T03:34:21.602Z,-63
2018-01-01T03:35:20.840Z,-63
2018-01-01T03:36:20.483Z,-68
2018-01-01T03:37:21.478Z,-66
2018-01-01T03:38:21.394Z,-66
2018-01-01T03:39:21.422Z,-61
2018-01-01T03:40:21.070Z,-61
2018-01-01T03:41:21.014Z,-63
2018-01-01T03:42:20.866Z,-62
2018-01-01T03:43:20.949Z,-64
2018-01-01T03:44:21.192Z,-68
2018-01-01T03:45:21.354Z,-62
2018-01-01T03:46:21.532Z,-61
2018-01-01T03:47:21.436Z,-62
2018-01-01T03:48:21.391Z,-68
2018-01-01T03:49:21.575Z,-62
2018-01-01T03:50:21.795Z,-63
2018-01-01T03:51:21.463Z,-68
2018-01-01T03:52:20.929Z,-61
2018-01-01T03:53:20.926Z,-68
2018-01-01T03:54:21.120Z,-64
2018-01-01T03:55:20.954Z,-62
2018-01-01T03:56:21.261Z,-65
2018-01-01T03:57:21.130Z,-63
2018-01-01T03:58:21.284Z,-63
2018-01-01T03:59:21.312Z,-63
2018-01-01T04:00:21.614Z,-69
2018-01-01T04:01:21.477Z,-70
2018-01-01T04:02:21.350Z,-62
2018-01-01T04:03:21.180Z,-62
2018-01-01T04:04:21.249Z,-62
2018-01-01T04:05:21.060Z,-69
2018-01-01T04:06:21.287Z,-62
2018-01-01T04:07:20.587Z,-65
2018-01-01T04:08:20.774Z,-63
2018-01-01T04:09:20.664Z,-61
2018-01-01T04:10:20.669Z,-62
2018-01-01T04:11:20.849Z,-64
2018-01-01T04:12:21.342Z,-63
2018-01-01T04:13:20.640Z,-65
2018-01-01T04:15:21.124Z,-85
2018-01-01T04:16:21.408Z,-86
2018-01-01T04:17:20.980Z,-87
2018-01-01T04:18:21.210Z,-87
2018-01-01T04:19:20.694Z,-87
2018-01-01T04:20:20.759Z,-88
2018-01-01T04:21:20.674Z,-88
2018-01-01T04:22:20.746Z,-86
2018-01-01T04:23:20.731Z,-88
2018-01-01T04:24:21.091Z,-87
2018-01-01T04:25:21.468Z,-87
2018-01-01T04:26:21.038Z,-87
2018-01-01T04:27:21.540Z,-87
2018-01-01T04:28:21.183Z,-87
2018-01-01T04:29:20.887Z,-87
2018-01-01T04:30:21.522Z,-87
2018-01-01T04:31:20.978Z,-87
2018-01-01T04:32:21.048Z,-87
2018-01-01T04:33:21.156Z,-87
2018-01-01T04:34:21.249Z,-86
2018-01-01T04:35:20.728Z,-87
2018-01-01T04:36:21.104Z,-86
2018-01-01T04:37:20.163Z,-86
2018-01-01T04:38:20.883Z,-88
2018-01-01T04:39:21.029Z,-86
2018-01-01T04:40:21.127Z,-86
2018-01-01T04:41:21.472Z,-85
2018-01-01T04:42:21.099Z,-86
2018-01-01T04:43:21.205Z,-85
2018-01-01T04:44:20.609Z,-87
2018-01-01T04:45:21.062Z,-86
2018-01-01T04:46:21.338Z,-86
2018-01-01T04:47:20.651Z,-85
2018-01-01T04:48:20.705Z,-87
2018-01-01T04:49:20.917Z,-86
2018-01-01T04:50:20.658Z,-87
2018-01-01T04:51:20.876Z,-88
2018-01-01T04:52:21.289Z,-88
2018-01-01T04:53:20.756Z,-87
2018-01-01T04:54:20.939Z,-88
2018-01-01T04:55:21.050Z,-87
2018-01-01T04:56:21.418Z,-88
2018-01-01T04:57:20.707Z,-88
2018-01-01T04:58:20.956Z,-87
2018-01-01T04:59:21.147Z,-86
2018-01-01T05:00:21.316Z,-86
2018-01-01T05:01:20.448Z,-86
2018-01-01T05:02:20.746Z,-86
2018-01-01T05:03:20.897Z,-86
2018-01-01T05:04:21.460Z,-86
2018-01-01T05:05:20.786Z,-86
2018-01-01T05:06:21.021Z,-86
2018-01-01T05:07:21.279Z,-86
2018-01-01T05:08:20.715Z,-86
2018-01-01T05:09:20.372Z,-86
2018-01-01T05:10:20.610Z,-86
2018-01-01T05:11:21.059Z,-86
2018-01-01T05:12:20.481Z,-86
2018-01-01T05:13:21.341Z,-87
2018-01-01T05:14:20.364Z,-87
2018-01-01T05:15:20.847Z,-87
2018-01-01T05:16:21.070Z,-87
2018-01-01T05:17:21.360Z,-87
2018-01-01T05:18:20.710Z,-87
2018-01-01T05:19:20.845Z,-88
2018-01-01T05:20:21.095Z,-85
2018-01-01T05:21:21.332Z,-85
2018-01-01T05:22:20.894Z,-85
2018-01-01T05:23:21.207Z,-85
2018-01-01T05:24:20.128Z,-85
2018-01-01T05:25:20.263Z,-85
2018-01-01T05:26:20.605Z,-85
2018-01-01T05:27:21.146Z,-85
2018-01-01T05:28:20.069Z,-85
2018-01-01T05:29:21.043Z,-85
2018-01-01T05:30:21.262Z,-85
2018-01-01T05:31:20.471Z,-85
2018-01-01T05:32:20.033Z,-85
2018-01-01T05:33:21.360Z,-85
2018-01-01T05:34:20.222Z,-85
2018-01-01T05:35:20.331Z,-85
2018-01-01T05:36:20.586Z,-86
2018-01-01T05:37:20.720Z,-87
2018-01-01T05:38:21.095Z,-86
2018-01-01T05:39:21.432Z,-86
2018-01-01T05:40:21.730Z,-86
2018-01-01T05:41:21.979Z,-87
2018-01-01T05:42:21.157Z,-86
2018-01-01T05:43:21.830Z,-86
2018-01-01T05:44:22.262Z,-87
2018-01-01T05:45:21.551Z,-87
2018-01-01T05:46:21.593Z,-86
2018-01-01T05:47:21.624Z,-87
2018-01-01T05:48:21.152Z,-86
2018-01-01T05:49:21.611Z,-86
2018-01-01T05:50:22.285Z,-87
2018-01-01T05:51:21.772Z,-86
2018-01-01T05:52:21.929Z,-86
2018-01-01T05:53:21.405Z,-86
2018-01-01T05:54:21.506Z,-86
2018-01-01T05:55:21.718Z,-87
2018-01-01T05:56:22.250Z,-88
2018-01-01T05:57:21.848Z,-85
2018-01-01T05:58:22.284Z,-85
2018-01-01T05:59:21.503Z,-84
2018-01-01T06:00:21.554Z,-84
2018-01-01T06:01:21.785Z,-85
2018-01-01T06:02:22.032Z,-85
2018-01-01T06:03:21.326Z,-84
2018-01-01T06:04:20.960Z,-84
2018-01-01T06:05:21.387Z,-85
2018-01-01T06:06:21.641Z,-84
2018-01-01T06:07:21.912Z,-85
2018-01-01T06:08:19.725Z,-85
2018-01-01T06:09:20.925Z,-85
2018-01-01T06:10:21.177Z,-86
2018-01-01T06:11:20.668Z,-86
2018-01-01T06:12:20.318Z,-86
2018-01-01T06:13:20.857Z,-85
2018-01-01T06:14:21.182Z,-86
2018-01-01T06:15:20.639Z,-86
2018-01-01T06:16:20.544Z,-87
2018-01-01T06:17:20.571Z,-90
2018-01-01T06:18:21.235Z,-87
2018-01-01T06:19:20.242Z,-88
2018-01-01T06:20:20.476Z,-88
2018-01-01T06:21:20.901Z,-85
2018-01-01T06:22:21.035Z,-85
2018-01-01T06:23:20.318Z,-85
2018-01-01T06:24:20.282Z,-88
2018-01-01T06:25:20.302Z,-88
2018-01-01T06:26:20.499Z,-88
2018-01-01T06:27:21.034Z,-89
2018-01-01T06:28:21.212Z,-87
2018-01-01T06:29:20.230Z,-87
2018-01-01T06:30:21.056Z,-88
2018-01-01T06:31:20.401Z,-87
2018-01-01T06:32:20.140Z,-88
2018-01-01T06:33:20.800Z,-88
2018-01-01T06:34:21.217Z,-88
2018-01-01T06:35:21.329Z,-88
2018-01-01T06:36:20.617Z,-88
2018-01-01T06:37:20.609Z,-87
2018-01-01T06:38:20.886Z,-87
2018-01-01T06:40:28.765Z,-69
2018-01-01T06:41:20.734Z,-61
2018-01-01T06:42:20.823Z,-64
2018-01-01T06:43:20.510Z,-63
2018-01-01T06:44:21.288Z,-61
2018-01-01T06:45:21.113Z,-65
2018-01-01T06:46:21.049Z,-66
2018-01-01T06:47:21.088Z,-64
2018-01-01T06:48:21.079Z,-62
2018-01-01T06:49:21.623Z,-61
2018-01-01T06:50:21.450Z,-61
2018-01-01T06:51:21.475Z,-62
2018-01-01T06:52:21.525Z,-68
2018-01-01T06:53:21.718Z,-62
2018-01-01T06:54:20.735Z,-61
2018-01-01T06:55:20.013Z,-68
2018-01-01T06:56:21.567Z,-68
2018-01-01T06:57:21.741Z,-63
2018-01-01T06:58:20.733Z,-61
2018-01-01T06:59:20.807Z,-68
2018-01-01T07:00:21.209Z,-65
2018-01-01T07:01:20.961Z,-62
2018-01-01T07:02:21.062Z,-62
2018-01-01T07:03:20.939Z,-65
2018-01-01T07:04:20.780Z,-68
2018-01-01T07:05:20.939Z,-67
2018-01-01T07:06:20.566Z,-65
2018-01-01T07:07:21.359Z,-67
2018-01-01T07:08:21.045Z,-61
2018-01-01T07:09:21.118Z,-67
2018-01-01T07:10:21.219Z,-62
2018-01-01T07:11:21.183Z,-65
2018-01-01T07:12:21.202Z,-61
2018-01-01T07:13:21.337Z,-65
2018-01-01T07:14:21.289Z,-63
2018-01-01T07:15:21.294Z,-64
2018-01-01T07:16:21.612Z,-62
2018-01-01T07:17:20.527Z,-64
2018-01-01T07:18:20.956Z,-68
2018-01-01T07:19:21.198Z,-61
2018-01-01T07:22:24.464Z,-68
2018-01-01T07:23:20.390Z,-68
2018-01-01T07:24:21.758Z,-61
2018-01-01T07:27:38.917Z,-67
2018-01-01T07:28:21.043Z,-61
2018-01-01T07:29:21.381Z,-68
2018-01-01T07:30:21.155Z,-65
2018-01-01T07:31:21.262Z,-62
2018-01-01T07:32:20.820Z,-68
2018-01-01T07:33:21.036Z,-61
2018-01-01T07:34:20.870Z,-61
2018-01-01T07:35:20.778Z,-62
2018-01-01T07:36:20.784Z,-64
2018-01-01T07:37:20.841Z,-61
2018-01-01T07:38:20.535Z,-61
2018-01-01T07:39:20.617Z,-61
2018-01-01T07:40:20.411Z,-62
2018-01-01T07:41:21.460Z,-69
2018-01-01T07:42:21.280Z,-60
2018-01-01T07:43:20.908Z,-60
2018-01-01T07:44:20.405Z,-61
2018-01-01T07:45:21.266Z,-60
2018-01-01T07:46:21.846Z,-63
2018-01-01T07:47:20.768Z,-61
2018-01-01T07:48:20.665Z,-62
2018-01-01T07:49:20.775Z,-63
2018-01-01T07:50:20.743Z,-60
2018-01-01T07:51:20.620Z,-66
2018-01-01T07:52:21.093Z,-68
2018-01-01T07:53:20.916Z,-61
2018-01-01T07:54:20.809Z,-63
2018-01-01T07:55:21.356Z,-64
2018-01-01T07:56:21.189Z,-62
2018-01-01T07:57:20.893Z,-63
2018-01-01T07:58:21.014Z,-68
2018-01-01T07:59:21.083Z,-68
2018-01-01T08:00:21.210Z,-61
2018-01-01T08:01:20.898Z,-66
2018-01-01T08:02:20.732Z,-64
2018-01-01T08:03:20.848Z,-63
2018-01-01T08:04:20.938Z,-68
2018-01-01T08:05:21.051Z,-67
2018-01-01T08:06:20.970Z,-66
2018-01-01T08:07:21.092Z,-68
2018-01-01T08:08:21.146Z,-61
2018-01-01T08:09:20.442Z,-63
2018-01-01T08:10:20.479Z,-64
2018-01-01T08:11:20.627Z,-67
2018-01-01T08:12:20.606Z,-60
2018-01-01T08:13:20.650Z,-67
2018-01-01T08:14:20.567Z,-63
2018-01-01T08:15:20.463Z,-60
2018-01-01T08:16:20.143Z,-65
2018-01-01T08:17:21.091Z,-67
2018-01-01T08:18:21.132Z,-63
2018-01-01T08:19:21.149Z,-63
2018-01-01T08:20:21.266Z,-67
2018-01-01T08:21:20.529Z,-64
2018-01-01T08:22:20.711Z,-63
2018-01-01T08:23:20.819Z,-67
2018-01-01T08:24:20.553Z,-67
2018-01-01T08:25:20.971Z,-60
2018-01-01T08:26:20.867Z,-61
2018-01-01T08:27:21.533Z,-67
2018-01-01T08:28:20.470Z,-62
2018-01-01T08:29:20.440Z,-63
2018-01-01T08:30:20.638Z,-60
2018-01-01T08:31:20.643Z,-69
2018-01-01T08:32:20.659Z,-69
2018-01-01T08:33:20.741Z,-65
2018-01-01T08:34:20.774Z,-68
2018-01-01T08:35:20.754Z,-65
2018-01-01T08:36:20.783Z,-61
2018-01-01T08:37:20.437Z,-63
2018-01-01T08:38:20.645Z,-65
2018-01-01T08:39:20.355Z,-65
2018-01-01T08:40:21.390Z,-61
2018-01-01T08:41:21.210Z,-63
2018-01-01T08:42:21.207Z,-61
2018-01-01T08:43:21.251Z,-63
2018-01-01T08:44:21.115Z,-64
2018-01-01T08:45:21.344Z,-63
2018-01-01T08:46:20.748Z,-63
2018-01-01T08:49:23.520Z,-68
2018-01-01T08:50:20.501Z,-65
2018-01-01T08:51:20.390Z,-68
2018-01-01T08:52:20.360Z,-61
2018-01-01T08:53:20.200Z,-64
2018-01-01T08:54:20.263Z,-61
2018-01-01T08:55:20.182Z,-63
2018-01-01T08:57:20.019Z,-91
2018-01-01T08:58:20.132Z,-91
2018-01-01T08:59:20.275Z,-92
2018-01-01T09:00:20.684Z,-93
2018-01-01T09:01:20.146Z,-92
2018-01-01T09:02:20.361Z,-91
2018-01-01T09:03:20.572Z,-89
2018-01-01T09:04:20.707Z,-88
2018-01-01T09:05:20.141Z,-89
2018-01-01T09:06:20.303Z,-89
2018-01-01T09:07:20.780Z,-88
2018-01-01T09:08:20.408Z,-92
2018-01-01T09:09:20.712Z,-92
2018-01-01T09:10:20.320Z,-93
2018-01-01T09:11:20.637Z,-91
2018-01-01T09:12:20.162Z,-88
2018-01-01T09:13:20.758Z,-88
2018-01-01T09:14:20.032Z,-88
2018-01-01T09:15:20.316Z,-90
2018-01-01T09:16:19.654Z,-89
2018-01-01T09:17:19.786Z,-92
2018-01-01T09:18:20.384Z,-90
2018-01-01T09:19:20.618Z,-93
2018-01-01T09:20:19.772Z,-91
2018-01-01T09:21:20.540Z,-89
2018-01-01T09:22:19.935Z,-89
2018-01-01T09:23:20.325Z,-93
2018-01-01T09:24:20.785Z,-93
2018-01-01T09:25:20.175Z,-85
2018-01-01T09:26:20.180Z,-86
2018-01-01T09:27:20.554Z,-83
2018-01-01T09:28:19.865Z,-87
2018-01-01T09:29:19.995Z,-91
2018-01-01T09:30:19.994Z,-89
2018-01-01T09:31:20.202Z,-91
2018-01-01T09:32:20.344Z,-84
2018-01-01T09:33:20.523Z,-92
2018-01-01T09:34:19.965Z,-92
2018-01-01T09:35:20.056Z,-92
2018-01-01T09:36:20.517Z,-91
2018-01-01T09:37:19.821Z,-91
2018-01-01T09:38:20.178Z,-91
2018-01-01T09:39:20.402Z,-86
2018-01-01T09:40:20.516Z,-86
2018-01-01T09:41:19.924Z,-86
2018-01-01T09:42:20.103Z,-86
2018-01-01T09:43:20.321Z,-86
2018-01-01T09:44:20.354Z,-87
2018-01-01T09:45:19.726Z,-91
2018-01-01T09:46:20.000Z,-89
2018-01-01T09:47:20.184Z,-92
2018-01-01T09:48:20.376Z,-84
2018-01-01T09:49:19.432Z,-85
2018-01-01T09:50:21.098Z,-86
2018-01-01T09:51:20.391Z,-85
2018-01-01T09:52:20.904Z,-91
2018-01-01T09:53:20.061Z,-91
2018-01-01T09:54:20.473Z,-92
2018-01-01T09:55:19.854Z,-92
2018-01-01T09:56:20.108Z,-93
2018-01-01T09:57:20.437Z,-92
2018-01-01T09:58:20.877Z,-92
2018-01-01T09:59:20.049Z,-92
2018-01-01T10:00:20.145Z,-93
2018-01-01T10:01:20.768Z,-92
2018-01-01T10:02:20.097Z,-92
2018-01-01T10:03:20.345Z,-93
2018-01-01T10:04:19.972Z,-93
2018-01-01T10:05:20.679Z,-93
2018-01-01T10:06:20.093Z,-92
2018-01-01T10:07:20.753Z,-93
2018-01-01T10:08:20.134Z,-91
2018-01-01T10:09:20.389Z,-92
2018-01-01T10:10:20.574Z,-92
2018-01-01T10:11:21.191Z,-85
2018-01-01T10:12:20.278Z,-85
2018-01-01T10:13:20.625Z,-84
2018-01-01T10:14:19.946Z,-84
2018-01-01T10:15:20.268Z,-84
2018-01-01T10:16:20.809Z,-84
2018-01-01T10:17:20.177Z,-85
2018-01-01T10:18:20.438Z,-84
2018-01-01T10:19:20.663Z,-85
2018-01-01T10:20:20.214Z,-84
2018-01-01T10:21:20.374Z,-85
2018-01-01T10:22:20.550Z,-85
2018-01-01T10:23:20.777Z,-84
2018-01-01T10:24:20.271Z,-85
2018-01-01T10:25:20.716Z,-84
2018-01-01T10:26:20.478Z,-84
2018-01-01T10:27:20.881Z,-85
2018-01-01T10:28:22.319Z,-84
2018-01-01T10:29:21.989Z,-93
2018-01-01T10:30:21.942Z,-92
2018-01-01T10:31:20.547Z,-91
2018-01-01T10:32:21.072Z,-91
2018-01-01T10:33:20.290Z,-93
2018-01-01T10:34:20.675Z,-91
2018-01-01T10:35:20.539Z,-92
2018-01-01T10:36:20.866Z,-92
2018-01-01T10:37:20.712Z,-91
2018-01-01T10:38:30.356Z,-87
2018-01-01T10:39:21.192Z,-87
2018-01-01T10:40:20.481Z,-84
2018-01-01T10:41:26.120Z,-88
2018-01-01T10:42:20.715Z,-85
2018-01-01T10:43:23.398Z,-88
2018-01-01T10:44:20.707Z,-87
2018-01-01T10:45:24.628Z,-89
2018-01-01T10:46:21.770Z,-91
2018-01-01T10:47:20.013Z,-92
2018-01-01T10:48:21.169Z,-90
2018-01-01T10:49:22.745Z,-88
2018-01-01T10:50:19.874Z,-88
2018-01-01T10:51:20.225Z,-87
2018-01-01T10:52:20.583Z,-89
2018-01-01T10:53:20.876Z,-89
2018-01-01T10:54:20.212Z,-87
2018-01-01T10:55:20.300Z,-88
2018-01-01T10:56:20.421Z,-86
2018-01-01T10:57:20.871Z,-85
2018-01-01T10:59:24.152Z,-68
2018-01-01T11:00:19.982Z,-68
2018-01-01T11:01:20.061Z,-61
2018-01-01T11:02:20.149Z,-61
2018-01-01T11:03:22.492Z,-68
2018-01-01T11:04:20.871Z,-64
2018-01-01T11:05:19.772Z,-59
2018-01-01T11:06:19.848Z,-61
2018-01-01T11:07:20.012Z,-68
2018-01-01T11:08:20.289Z,-61
2018-01-01T11:09:20.306Z,-61
2018-01-01T11:10:20.307Z,-61
2018-01-01T11:11:20.210Z,-64
2018-01-01T11:12:19.309Z,-61
2018-01-01T11:13:20.092Z,-65
2018-01-01T11:16:27.080Z,-71
2018-01-01T11:17:26.930Z,-70
2018-01-01T11:18:26.926Z,-65
2018-01-01T11:19:28.169Z,-69
2018-01-01T11:20:27.224Z,-70
2018-01-01T11:21:27.259Z,-69
2018-01-01T11:22:27.331Z,-69
2018-01-01T11:23:27.192Z,-66
2018-01-01T11:24:27.429Z,-67
2018-01-01T11:25:27.491Z,-70
2018-01-01T11:26:27.876Z,-66
2018-01-01T11:27:27.902Z,-65
2018-01-01T11:28:27.114Z,-70
2018-01-01T11:29:26.951Z,-65
2018-01-01T11:30:27.250Z,-67
2018-01-01T11:31:27.523Z,-71
2018-01-01T11:32:27.529Z,-65
2018-01-01T11:33:27.810Z,-70
2018-01-01T11:34:27.876Z,-70
2018-01-01T11:35:28.072Z,-70
2018-01-01T11:36:27.327Z,-69
2018-01-01T11:37:27.307Z,-66
2018-01-01T11:38:27.112Z,-67
2018-01-01T11:39:27.310Z,-70
2018-01-01T11:40:27.477Z,-65
2018-01-01T11:41:27.460Z,-66
2018-01-01T11:42:27.545Z,-71
2018-01-01T11:43:27.509Z,-67
2018-01-01T11:44:27.707Z,-67
2018-01-01T11:45:28.087Z,-67
2018-01-01T11:46:27.201Z,-66
2018-01-01T11:47:27.324Z,-66
2018-01-01T11:48:27.285Z,-67
2018-01-01T11:49:27.515Z,-70
2018-01-01T11:50:27.436Z,-69
2018-01-01T11:51:27.583Z,-71
2018-01-01T11:52:27.610Z,-69
2018-01-01T11:53:27.687Z,-65
2018-01-01T11:54:27.899Z,-70
2018-01-01T11:55:27.788Z,-65
2018-01-01T11:56:28.929Z,-70
2018-01-01T11:57:28.110Z,-66
2018-01-01T11:58:28.062Z,-65
2018-01-01T11:59:28.221Z,-65
2018-01-01T12:00:27.103Z,-65
2018-01-01T12:01:28.049Z,-66
2018-01-01T12:02:28.602Z,-68
2018-01-01T12:03:32.098Z,-63
2018-01-01T12:04:31.158Z,-68
2018-01-01T12:05:29.768Z,-64
2018-01-01T12:06:28.004Z,-63
2018-01-01T12:07:27.832Z,-68
2018-01-01T12:08:27.962Z,-69
2018-01-01T12:09:27.928Z,-69
2018-01-01T12:10:28.184Z,-68
2018-01-01T12:11:28.614Z,-67
2018-01-01T12:12:27.678Z,-65
2018-01-01T12:13:27.562Z,-70
2018-01-01T12:14:27.573Z,-66
2018-01-01T12:15:27.605Z,-70
2018-01-01T12:16:27.687Z,-70
2018-01-01T12:17:28.590Z,-70
2018-01-01T12:18:27.504Z,-66
2018-01-01T12:19:28.437Z,-71
2018-01-01T12:20:28.582Z,-67
2018-01-01T12:21:28.541Z,-67
2018-01-01T12:22:28.619Z,-69
2018-01-01T12:23:28.627Z,-66
2018-01-01T12:24:27.505Z,-69
2018-01-01T12:25:28.513Z,-70
2018-01-01T12:26:28.751Z,-66
2018-01-01T12:27:27.728Z,-64
2018-01-01T12:28:27.560Z,-71
2018-01-01T12:29:27.647Z,-70
2018-01-01T12:30:28.574Z,-70
2018-01-01T12:31:28.453Z,-66
2018-01-01T12:32:28.500Z,-66
2018-01-01T12:33:28.630Z,-67
2018-01-01T12:34:28.786Z,-70
2018-01-01T12:35:28.249Z,-70
2018-01-01T12:36:28.436Z,-66
2018-01-01T12:37:28.499Z,-64
2018-01-01T12:38:28.604Z,-65
2018-01-01T12:39:27.736Z,-65
2018-01-01T12:40:28.008Z,-65
2018-01-01T12:41:28.145Z,-70
2018-01-01T12:42:28.223Z,-64
2018-01-01T12:43:28.237Z,-64
2018-01-01T12:44:28.132Z,-64
2018-01-01T12:45:28.105Z,-63
2018-01-01T12:46:28.496Z,-67
2018-01-01T12:47:27.578Z,-68
2018-01-01T12:48:27.506Z,-64
2018-01-01T12:49:27.672Z,-67
2018-01-01T12:50:27.569Z,-63
2018-01-01T12:51:27.752Z,-67
2018-01-01T12:52:27.832Z,-63
2018-01-01T12:53:27.802Z,-64
2018-01-01T12:54:27.880Z,-69
2018-01-01T12:55:27.843Z,-64
2018-01-01T12:56:27.761Z,-68
2018-01-01T12:57:27.968Z,-65
2018-01-01T12:58:28.031Z,-65
2018-01-01T12:59:27.942Z,-64
2018-01-01T13:00:27.937Z,-66
2018-01-01T13:01:27.910Z,-68
2018-01-01T13:02:27.978Z,-69
2018-01-01T13:03:27.881Z,-66
2018-01-01T13:04:27.941Z,-69
2018-01-01T13:05:28.095Z,-66
2018-01-01T13:06:28.364Z,-69
2018-01-01T13:07:27.426Z,-67
2018-01-01T13:08:27.384Z,-70
2018-01-01T13:09:27.576Z,-71
2018-01-01T13:10:29.530Z,-69
2018-01-01T13:11:28.336Z,-70
2018-01-01T13:12:28.315Z,-70
2018-01-01T13:13:27.865Z,-70
2018-01-01T13:14:28.825Z,-65
2018-01-01T13:15:28.888Z,-66
2018-01-01T13:16:28.753Z,-65
2018-01-01T13:17:28.528Z,-70
2018-01-01T13:18:29.094Z,-68
2018-01-01T13:19:28.935Z,-65
2018-01-01T13:20:29.114Z,-64
2018-01-01T13:21:29.123Z,-64
2018-01-01T13:22:28.937Z,-66
2018-01-01T13:23:28.767Z,-69
2018-01-01T13:24:29.501Z,-70
2018-01-01T13:25:29.224Z,-69
2018-01-01T13:26:28.929Z,-69
2018-01-01T13:27:28.711Z,-69
2018-01-01T13:28:29.400Z,-69
2018-01-01T13:29:29.357Z,-65
2018-01-01T13:30:28.955Z,-65
2018-01-01T13:31:28.730Z,-69
2018-01-01T13:32:29.464Z,-69
2018-01-01T13:33:28.924Z,-65
2018-01-01T13:34:28.755Z,-69
2018-01-01T13:35:29.736Z,-69
2018-01-01T13:36:29.627Z,-65
2018-01-01T13:37:29.213Z,-65
2018-01-01T13:38:29.035Z,-69
2018-01-01T13:39:28.736Z,-69
2018-01-01T13:40:29.380Z,-65
2018-01-01T13:41:29.289Z,-69
2018-01-01T13:42:29.039Z,-68
2018-01-01T13:43:28.768Z,-69
2018-01-01T13:44:29.432Z,-68
2018-01-01T13:45:29.241Z,-69
2018-01-01T13:46:28.919Z,-69
2018-01-01T13:47:27.987Z,-65
2018-01-01T13:48:27.678Z,-68
2018-01-01T13:49:28.521Z,-65
2018-01-01T13:50:28.148Z,-68
2018-01-01T13:51:27.860Z,-69
2018-01-01T13:52:27.795Z,-69
2018-01-01T13:53:28.483Z,-64
2018-01-01T13:54:28.412Z,-64
2018-01-01T13:55:28.109Z,-65
2018-01-01T13:56:27.878Z,-69
2018-01-01T13:57:28.567Z,-69
2018-01-01T13:58:28.267Z,-69